Time;durP1;ratioP1;P1;durP2;ratioP2;P2;SDS_P1;SDS_P2;PMS_P1;PMS_P2;Temp;Humidity;BMP_temperature;BMP_pressure;BME280_temperature;BME280_humidity;BME280_pressure;Samples;Min_cycle;Max_cycle;Signal;HPM_P1;HPM_P2
2021/12/17 00:04:52;;;;;;;38.70;19.92;;;6.60;99.10;;;;;;5003211;28;20077;-71
2021/12/17 00:07:18;;;;;;;35.58;17.83;;;6.50;99.30;;;;;;4987915;28;20026;-71
2021/12/17 00:09:46;;;;;;;40.25;17.67;;;6.50;99.70;;;;;;5001768;28;20046;-72
2021/12/17 00:12:15;;;;;;;40.42;18.73;;;6.60;99.30;;;;;;4986083;28;20324;-72
2021/12/17 00:14:43;;;;;;;36.83;18.27;;;6.60;99.20;;;;;;4985653;28;20110;-72
2021/12/17 00:17:12;;;;;;;38.80;18.60;;;6.50;99.40;;;;;;5001903;28;20033;-72
2021/12/17 00:49:49;;;;;;;38.70;18.90;;;6.20;99.90;;;;;;5001024;28;20010;-72
2021/12/17 00:52:15;;;;;;;37.60;17.98;;;6.30;99.90;;;;;;5001779;28;20022;-72
2021/12/17 00:54:41;;;;;;;41.53;17.50;;;6.30;99.90;;;;;;5002428;28;20022;-72
2021/12/17 00:57:35;;;;;;;46.88;18.67;;;6.30;99.90;;;;;;5001481;28;20042;-72
2021/12/17 01:00:04;;;;;;;43.47;18.77;;;6.30;99.90;;;;;;5002724;28;20026;-70
2021/12/17 01:02:32;;;;;;;43.63;18.10;;;6.40;99.90;;;;;;5002541;28;20022;-70
2021/12/17 01:05:01;;;;;;;45.15;19.15;;;6.40;99.90;;;;;;5002641;28;20154;-70
2021/12/17 01:07:30;;;;;;;47.35;18.13;;;6.40;99.90;;;;;;5002998;28;20344;-70
2021/12/17 01:09:56;;;;;;;40.63;18.35;;;6.40;99.80;;;;;;5001455;28;20046;-71
2021/12/17 01:12:22;;;;;;;43.87;17.93;;;6.40;99.70;;;;;;4986691;28;20022;-71
2021/12/17 01:14:48;;;;;;;36.93;16.77;;;6.50;99.70;;;;;;5002814;28;20042;-71
2021/12/17 01:17:15;;;;;;;38.42;17.02;;;6.50;99.60;;;;;;5001651;28;20273;-71
2021/12/17 01:24:48;;;;;;;40.35;16.83;;;6.50;99.40;;;;;;5002161;28;20049;-71
2021/12/17 01:35:44;;;;;;;42.35;17.95;;;6.50;98.80;;;;;;5000787;28;20037;-70
2021/12/17 01:43:42;;;;;;;45.10;17.33;;;6.40;99.30;;;;;;5001117;28;20011;-70
2021/12/17 01:46:08;;;;;;;40.42;16.88;;;6.30;99.20;;;;;;5001927;28;20387;-70
2021/12/17 01:48:55;;;;;;;40.35;16.63;;;6.40;99.20;;;;;;5001889;28;20089;-70
2021/12/17 01:56:56;;;;;;;46.38;17.92;;;6.30;99.00;;;;;;5005922;28;20177;-70
2021/12/17 01:59:26;;;;;;;39.28;17.33;;;6.30;99.10;;;;;;5004630;28;20221;-70
2021/12/17 02:02:02;;;;;;;39.80;17.17;;;6.40;98.70;;;;;;5005914;28;20015;-72
2021/12/17 02:04:30;;;;;;;45.33;16.70;;;6.40;98.60;;;;;;4989426;28;20049;-71
2021/12/17 02:06:56;;;;;;;40.33;16.13;;;6.40;98.70;;;;;;5004044;28;20268;-71
2021/12/17 02:10:16;;;;;;;46.45;16.67;;;6.30;99.10;;;;;;5004564;28;20022;-71
2021/12/17 02:32:17;;;;;;;40.13;16.67;;;6.30;98.70;;;;;;4985946;28;20229;-72
2021/12/17 02:37:12;;;;;;;44.27;18.60;;;6.10;98.70;;;;;;5005026;28;20057;-70
2021/12/17 02:40:11;;;;;;;41.45;16.48;;;6.10;98.90;;;;;;5004895;28;20257;-71
2021/12/17 02:48:20;;;;;;;43.20;17.15;;;6.20;98.70;;;;;;4995922;28;20037;-70
2021/12/17 02:50:57;;;;;;;38.15;15.98;;;6.10;98.90;;;;;;5003678;28;20042;-71
2021/12/17 02:53:25;;;;;;;47.78;18.58;;;5.90;99.20;;;;;;5003538;28;20237;-70
2021/12/17 02:55:57;;;;;;;50.47;20.67;;;5.90;99.40;;;;;;5004060;28;20238;-70
2021/12/17 02:58:25;;;;;;;43.35;17.02;;;5.90;99.30;;;;;;5003614;28;20297;-70
2021/12/17 03:00:51;;;;;;;50.05;17.73;;;6.00;99.30;;;;;;5003611;28;20030;-70
2021/12/17 03:03:17;;;;;;;48.03;18.05;;;6.00;99.40;;;;;;5004239;28;20085;-70
2021/12/17 03:05:43;;;;;;;43.90;17.33;;;5.90;99.30;;;;;;5004408;28;20034;-70
2021/12/17 03:08:14;;;;;;;42.83;16.23;;;6.00;99.30;;;;;;4986741;28;20290;-70
2021/12/17 03:10:40;;;;;;;47.45;16.48;;;6.00;99.20;;;;;;5003240;28;20026;-70
2021/12/17 03:13:07;;;;;;;38.30;15.35;;;6.00;99.00;;;;;;5003416;28;20030;-70
2021/12/17 03:15:38;;;;;;;40.10;15.50;;;5.90;99.10;;;;;;5004281;28;20050;-71
2021/12/17 03:26:01;;;;;;;39.50;13.90;;;5.70;99.20;;;;;;5003699;28;20026;-71
2021/12/17 03:28:27;;;;;;;33.88;12.77;;;5.70;99.20;;;;;;5004147;28;20029;-71
2021/12/17 03:30:54;;;;;;;33.88;13.32;;;5.70;99.20;;;;;;5002788;28;20045;-71
2021/12/17 03:33:20;;;;;;;41.13;14.38;;;5.70;99.10;;;;;;5002790;28;20101;-71
2021/12/17 03:35:47;;;;;;;35.03;14.27;;;5.80;98.80;;;;;;5002452;28;20452;-71
2021/12/17 03:38:13;;;;;;;;;;;5.80;99.00;;;;;;5002821;28;20073;-71
2021/12/17 03:40:41;;;;;;;41.13;13.20;;;5.60;99.20;;;;;;5003645;28;19909;-71
2021/12/17 03:43:12;;;;;;;44.70;15.43;;;5.50;99.50;;;;;;5003727;28;20085;-71
2021/12/17 03:45:41;;;;;;;38.92;14.30;;;5.50;99.70;;;;;;5003350;28;20348;-71
2021/12/17 03:48:08;;;;;;;36.13;13.45;;;5.50;99.80;;;;;;5002471;28;20173;-71
2021/12/17 03:50:36;;;;;;;36.80;13.00;;;5.50;99.80;;;;;;5002398;28;20310;-71
2021/12/17 03:53:03;;;;;;;39.47;14.27;;;5.60;99.40;;;;;;5002364;28;20030;-70
2021/12/17 03:55:29;;;;;;;37.97;14.05;;;5.50;99.50;;;;;;5002363;28;20022;-71
2021/12/17 03:57:59;;;;;;;34.50;13.53;;;5.50;99.70;;;;;;5003283;28;20069;-71
2021/12/17 04:00:25;;;;;;;44.17;15.88;;;5.50;99.80;;;;;;5003359;28;20094;-71
2021/12/17 04:02:50;;;;;;;33.07;14.63;;;5.40;99.60;;;;;;5003299;28;20379;-71
2021/12/17 04:05:16;;;;;;;31.95;12.48;;;5.40;99.70;;;;;;5002466;28;20030;-71
2021/12/17 04:07:42;;;;;;;43.10;14.40;;;5.40;99.90;;;;;;5002951;28;20046;-71
2021/12/17 04:10:08;;;;;;;35.13;12.87;;;5.50;99.60;;;;;;5003136;28;20026;-71
2021/12/17 04:15:13;;;;;;;37.17;11.65;;;5.40;99.90;;;;;;5002233;28;20286;-71
2021/12/17 04:17:52;;;;;;;37.90;12.95;;;5.40;99.80;;;;;;5002906;28;20221;-71
2021/12/17 04:20:18;;;;;;;32.17;11.45;;;5.50;99.50;;;;;;5002975;28;20026;-72
2021/12/17 04:22:44;;;;;;;36.77;11.73;;;5.40;99.40;;;;;;5002733;28;20022;-72
2021/12/17 04:25:10;;;;;;;30.15;10.38;;;5.30;99.50;;;;;;5001362;28;20018;-73
2021/12/17 04:27:36;;;;;;;37.83;13.23;;;5.30;99.80;;;;;;5001711;28;20022;-71
2021/12/17 04:30:02;;;;;;;39.50;13.13;;;5.30;99.90;;;;;;5002659;28;20049;-72
2021/12/17 04:32:27;;;;;;;36.92;11.18;;;5.40;99.70;;;;;;4985480;28;20093;-72
2021/12/17 04:34:53;;;;;;;29.40;10.15;;;5.40;99.60;;;;;;5002359;28;20026;-72
2021/12/17 04:37:19;;;;;;;39.60;12.60;;;5.40;99.40;;;;;;5000577;28;20027;-72
2021/12/17 04:39:45;;;;;;;33.80;12.57;;;5.40;99.60;;;;;;5001540;28;20351;-71
2021/12/17 04:42:25;;;;;;;36.03;12.05;;;5.30;99.40;;;;;;5002511;28;20034;-72
2021/12/17 04:44:55;;;;;;;38.90;11.70;;;5.30;99.50;;;;;;5002305;28;20065;-72
2021/12/17 04:58:19;;;;;;;30.83;10.80;;;5.40;99.30;;;;;;5000468;28;20021;-72
2021/12/17 05:00:45;;;;;;;39.67;13.77;;;5.40;99.30;;;;;;5002171;28;20057;-72
2021/12/17 05:03:11;;;;;;;36.35;12.23;;;5.30;99.30;;;;;;5002230;28;20465;-72
2021/12/17 05:05:36;;;;;;;28.08;11.55;;;5.30;99.40;;;;;;5000813;28;20037;-72
2021/12/17 05:08:07;;;;;;;33.88;12.13;;;5.30;99.20;;;;;;5001491;28;20030;-72
2021/12/17 05:11:15;;;;;;;34.80;12.10;;;5.30;99.20;;;;;;5000992;28;20085;-72
2021/12/17 05:19:39;;;;;;;34.53;13.32;;;5.30;99.20;;;;;;5002055;28;20060;-71
2021/12/17 05:21:48;;;;;;;27.77;10.07;;;5.30;99.20;;;;;;4995380;28;20041;-71
2021/12/17 05:24:14;;;;;;;33.83;11.03;;;5.30;99.20;;;;;;4983599;28;20030;-72
2021/12/17 05:26:40;;;;;;;36.38;11.73;;;5.30;99.20;;;;;;4982326;28;20022;-72
2021/12/17 05:29:07;;;;;;;;;;;5.40;99.20;;;;;;4982517;28;20046;-72
2021/12/17 05:31:33;;;;;;;33.67;12.43;;;5.40;99.10;;;;;;4982455;28;19945;-71
2021/12/17 05:33:59;;;;;;;35.63;10.98;;;5.40;99.00;;;;;;4987081;28;20217;-71
2021/12/17 05:36:25;;;;;;;31.23;12.18;;;5.40;99.00;;;;;;5001317;28;20030;-71
2021/12/17 05:38:51;;;;;;;29.38;10.00;;;5.40;99.00;;;;;;5000659;28;20077;-71
2021/12/17 05:41:16;;;;;;;29.65;10.70;;;5.30;99.00;;;;;;5001620;28;20030;-72
2021/12/17 05:43:43;;;;;;;30.75;10.90;;;5.30;99.00;;;;;;5001392;28;20041;-73
2021/12/17 05:46:11;;;;;;;29.60;10.20;;;5.30;98.90;;;;;;5000194;28;20217;-73
2021/12/17 05:48:38;;;;;;;32.35;11.70;;;5.30;98.80;;;;;;5001451;28;20027;-73
2021/12/17 05:51:07;;;;;;;29.35;9.50;;;5.30;98.70;;;;;;4981503;28;20018;-72
2021/12/17 05:53:33;;;;;;;28.23;10.00;;;5.40;98.80;;;;;;5000409;28;20027;-72
2021/12/17 05:55:59;;;;;;;32.23;11.60;;;5.40;98.80;;;;;;5001346;28;20057;-72
2021/12/17 05:58:26;;;;;;;30.13;10.63;;;5.40;98.80;;;;;;5000300;28;20018;-72
2021/12/17 06:00:52;;;;;;;26.85;9.77;;;5.30;98.70;;;;;;4997825;28;20356;-73
2021/12/17 06:03:18;;;;;;;30.07;11.07;;;5.30;98.60;;;;;;4993414;28;20109;-73
2021/12/17 06:05:44;;;;;;;30.90;10.88;;;5.20;98.60;;;;;;4997991;28;20030;-69
2021/12/17 06:08:10;;;;;;;32.70;10.30;;;5.20;98.80;;;;;;4999885;28;20060;-70
2021/12/17 06:10:36;;;;;;;36.90;10.90;;;5.20;98.90;;;;;;5000205;28;20319;-70
2021/12/17 06:13:02;;;;;;;31.33;11.07;;;5.30;98.90;;;;;;4999566;28;20026;-70
2021/12/17 06:15:28;;;;;;;25.80;8.80;;;5.30;98.90;;;;;;5001063;28;20088;-69
2021/12/17 06:17:54;;;;;;;31.73;10.50;;;5.20;98.90;;;;;;5001340;28;20030;-70
2021/12/17 06:20:20;;;;;;;29.00;9.77;;;5.20;99.00;;;;;;5001443;28;20129;-69
2021/12/17 06:22:47;;;;;;;27.42;9.52;;;5.20;99.00;;;;;;5000724;28;20018;-70
2021/12/17 06:25:13;;;;;;;25.45;9.80;;;5.10;99.10;;;;;;5001145;28;20042;-68
2021/12/17 06:27:39;;;;;;;26.97;9.90;;;5.10;99.00;;;;;;5000200;28;20060;-69
2021/12/17 06:30:07;;;;;;;24.25;8.60;;;5.20;98.70;;;;;;4992485;28;20034;-69
2021/12/17 06:32:33;;;;;;;27.08;9.00;;;5.20;98.60;;;;;;4987284;28;20038;-69
2021/12/17 06:34:59;;;;;;;35.00;11.30;;;5.20;98.40;;;;;;4999133;28;20088;-68
2021/12/17 06:37:25;;;;;;;25.58;8.73;;;5.20;98.50;;;;;;5000791;28;20029;-69
2021/12/17 06:39:50;;;;;;;29.13;9.63;;;5.20;98.40;;;;;;5004031;28;20026;-68
2021/12/17 06:42:17;;;;;;;27.95;9.48;;;5.10;99.00;;;;;;4994430;28;20033;-69
2021/12/17 06:44:44;;;;;;;29.77;11.18;;;5.00;99.10;;;;;;4984191;28;20029;-68
2021/12/17 06:47:23;;;;;;;30.63;11.27;;;5.00;99.20;;;;;;4984962;28;20026;-69
2021/12/17 06:49:56;;;;;;;32.22;10.80;;;5.00;99.20;;;;;;4996091;28;20337;-69
2021/12/17 07:10:56;;;;;;;32.40;10.13;;;5.10;99.20;;;;;;4991355;28;20030;-69
2021/12/17 07:34:43;;;;;;;40.28;11.43;;;4.90;99.50;;;;;;5001607;28;20321;-68
2021/12/17 07:39:35;;;;;;;25.57;9.13;;;4.90;99.20;;;;;;5004016;28;20022;-69
2021/12/17 07:42:02;;;;;;;30.80;10.23;;;4.80;99.30;;;;;;5003864;28;20027;-69
2021/12/17 07:44:28;;;;;;;27.05;10.05;;;4.90;99.40;;;;;;5003459;28;20030;-68
2021/12/17 07:46:54;;;;;;;26.88;9.65;;;4.90;99.40;;;;;;5003918;28;20030;-68
2021/12/17 07:49:20;;;;;;;28.13;9.52;;;4.90;99.20;;;;;;5003477;28;20093;-68
2021/12/17 07:51:45;;;;;;;35.83;10.02;;;5.00;99.20;;;;;;5003779;28;20026;-68
2021/12/17 07:54:11;;;;;;;28.63;8.70;;;5.00;99.20;;;;;;5003916;28;20018;-68
2021/12/17 07:56:38;;;;;;;27.02;9.40;;;5.00;99.10;;;;;;5002612;28;20086;-69
2021/12/17 07:59:08;;;;;;;27.83;10.40;;;5.00;99.00;;;;;;5002942;28;20025;-69
2021/12/17 08:01:35;;;;;;;30.25;9.40;;;5.00;99.00;;;;;;5003812;28;20030;-69
2021/12/17 08:04:03;;;;;;;28.10;8.90;;;5.00;98.90;;;;;;5001468;28;20041;-69
2021/12/17 08:06:28;;;;;;;26.60;8.38;;;5.00;98.70;;;;;;4969890;28;20432;-68
2021/12/17 08:08:54;;;;;;;23.67;8.27;;;4.90;98.80;;;;;;5003591;28;20030;-69
2021/12/17 08:11:22;;;;;;;31.08;9.30;;;4.80;98.80;;;;;;5002474;28;20254;-69
2021/12/17 08:13:48;;;;;;;30.52;9.73;;;4.80;99.00;;;;;;5003017;28;20308;-67
2021/12/17 08:16:38;;;;;;;23.55;7.97;;;4.90;99.00;;;;;;5002615;28;20060;-67
2021/12/17 08:32:06;;;;;;;22.60;8.43;;;5.00;98.90;;;;;;5003828;28;20026;-72
2021/12/17 08:34:31;;;;;;;25.98;9.00;;;5.00;98.80;;;;;;5004572;28;20265;-73
2021/12/17 08:36:57;;;;;;;26.10;8.90;;;5.00;98.70;;;;;;5003690;28;20033;-73
2021/12/17 08:39:29;;;;;;;25.13;9.45;;;5.00;98.70;;;;;;5003315;28;20293;-73
2021/12/17 08:41:55;;;;;;;22.95;8.23;;;5.10;98.70;;;;;;5018512;28;20029;-73
2021/12/17 08:44:21;;;;;;;20.33;8.05;;;5.10;98.60;;;;;;5001579;28;20033;-73
2021/12/17 08:46:47;;;;;;;23.20;8.07;;;5.10;98.30;;;;;;4985854;28;20093;-72
2021/12/17 08:49:13;;;;;;;24.30;7.63;;;5.10;98.30;;;;;;5002793;28;20022;-72
2021/12/17 08:51:40;;;;;;;19.42;7.55;;;5.10;98.30;;;;;;4983257;28;20096;-73
2021/12/17 08:54:06;;;;;;;22.10;7.50;;;5.00;98.40;;;;;;5002566;28;20117;-74
2021/12/17 08:56:34;;;;;;;22.75;7.55;;;5.10;98.40;;;;;;4996471;28;20030;-74
2021/12/17 08:59:03;;;;;;;24.10;7.43;;;5.00;98.30;;;;;;4990018;28;20340;-73
2021/12/17 09:01:29;;;;;;;21.98;6.68;;;5.00;98.20;;;;;;4995670;28;20277;-73
2021/12/17 09:03:55;;;;;;;19.02;7.30;;;5.10;98.20;;;;;;5002831;28;20383;-73
2021/12/17 09:06:26;;;;;;;23.35;8.40;;;5.10;98.40;;;;;;5001186;28;20042;-72
2021/12/17 09:08:58;;;;;;;19.27;6.72;;;5.10;98.00;;;;;;5002551;28;20328;-73
2021/12/17 09:11:25;;;;;;;20.38;7.30;;;5.10;98.10;;;;;;5001431;28;20034;-73
2021/12/17 09:13:51;;;;;;;19.88;7.53;;;5.10;98.10;;;;;;4999948;28;20275;-73
2021/12/17 09:16:20;;;;;;;25.83;8.10;;;5.10;97.90;;;;;;5001531;28;20026;-73
2021/12/17 09:18:50;;;;;;;17.95;6.28;;;5.10;98.20;;;;;;5001922;28;20042;-72
2021/12/17 09:21:16;;;;;;;20.10;7.10;;;5.10;98.00;;;;;;4997110;28;20404;-73
2021/12/17 09:23:42;;;;;;;19.90;6.20;;;5.10;97.80;;;;;;5007153;28;20022;-73
2021/12/17 09:26:13;;;;;;;19.85;6.82;;;5.10;97.90;;;;;;4982541;28;20038;-73
2021/12/17 09:28:39;;;;;;;15.70;6.90;;;5.10;97.80;;;;;;4981335;28;20094;-77
2021/12/17 09:31:06;;;;;;;18.13;6.33;;;5.00;97.70;;;;;;4965320;28;20361;-71
2021/12/17 09:33:35;;;;;;;;;;;5.00;97.90;;;;;;4981824;28;20031;-72
2021/12/17 09:36:00;;;;;;;19.17;5.85;;;5.10;97.90;;;;;;4980699;28;19917;-72
2021/12/17 09:38:28;;;;;;;21.73;6.40;;;5.00;97.90;;;;;;4982682;28;20011;-72
2021/12/17 09:40:54;;;;;;;24.10;8.07;;;5.10;98.00;;;;;;4986569;28;20049;-72
2021/12/17 09:43:20;;;;;;;23.83;8.70;;;5.10;98.00;;;;;;4984354;28;20030;-70
2021/12/17 09:45:46;;;;;;;21.17;7.55;;;5.20;97.90;;;;;;4984108;28;20027;-73
2021/12/17 09:48:13;;;;;;;22.45;8.07;;;5.20;97.80;;;;;;5001475;28;20026;-71
2021/12/17 09:50:39;;;;;;;21.98;7.10;;;5.20;97.80;;;;;;5000463;28;20029;-72
2021/12/17 09:53:05;;;;;;;22.33;6.93;;;5.30;97.60;;;;;;5000825;28;20022;-72
2021/12/17 09:55:31;;;;;;;22.95;8.02;;;5.20;97.10;;;;;;5000116;28;20292;-72
2021/12/17 09:57:57;;;;;;;25.15;8.13;;;5.10;97.50;;;;;;5001302;28;20042;-68
2021/12/17 10:00:26;;;;;;;20.35;6.82;;;5.20;97.80;;;;;;5000684;28;20070;-70
2021/12/17 10:02:52;;;;;;;22.35;7.38;;;5.30;97.60;;;;;;5000858;28;20317;-71
2021/12/17 10:05:40;;;;;;;25.17;9.65;;;5.30;97.40;;;;;;5000692;28;20049;-72
2021/12/17 10:08:19;;;;;;;22.35;8.38;;;5.30;97.40;;;;;;4999940;28;20038;-72
2021/12/17 10:10:53;;;;;;;25.50;7.57;;;5.50;97.10;;;;;;4955432;28;20045;-77
2021/12/17 10:13:30;;;;;;;25.50;8.80;;;5.40;96.80;;;;;;4988560;28;20338;-74
2021/12/17 10:16:07;;;;;;;24.23;8.50;;;5.30;96.90;;;;;;5003835;28;20045;-74
2021/12/17 10:18:36;;;;;;;28.90;8.75;;;5.30;97.20;;;;;;5002481;28;20080;-75
2021/12/17 10:21:17;;;;;;;25.15;8.55;;;5.30;97.40;;;;;;5005047;28;20085;-69
2021/12/17 10:23:43;;;;;;;26.77;9.32;;;5.40;97.40;;;;;;5013044;28;20021;-73
2021/12/17 10:26:15;;;;;;;29.70;9.20;;;5.30;97.50;;;;;;5040321;28;20072;-75
2021/12/17 10:28:58;;;;;;;30.90;10.05;;;5.30;97.60;;;;;;5007378;28;20038;-75
2021/12/17 10:31:25;;;;;;;23.95;8.43;;;5.30;97.70;;;;;;5024915;28;20032;-77
2021/12/17 10:33:52;;;;;;;27.95;8.55;;;5.40;97.50;;;;;;5024166;28;20266;-78
2021/12/17 10:36:18;;;;;;;;;;;5.50;97.30;;;;;;5040374;28;20317;-74
2021/12/17 10:38:45;;;;;;;22.15;7.55;;;5.40;97.20;;;;;;5015616;28;19920;-71
2021/12/17 10:41:14;;;;;;;22.92;8.80;;;5.60;96.90;;;;;;5004468;28;20022;-72
2021/12/17 10:43:47;;;;;;;23.10;8.73;;;5.60;96.50;;;;;;5019855;28;20050;-71
2021/12/17 10:46:24;;;;;;;23.27;8.90;;;5.50;96.70;;;;;;5019287;28;20045;-70
2021/12/17 10:48:54;;;;;;;21.87;8.53;;;5.60;96.50;;;;;;5003708;28;20026;-74
2021/12/17 10:54:03;;;;;;;19.10;7.00;;;5.60;96.80;;;;;;5006765;28;20086;-73
2021/12/17 10:56:36;;;;;;;21.17;8.80;;;5.60;96.80;;;;;;5005300;28;20030;-73
2021/12/17 10:59:11;;;;;;;19.55;7.85;;;5.60;96.70;;;;;;5004474;28;20081;-74
2021/12/17 11:01:43;;;;;;;21.35;8.63;;;5.70;96.50;;;;;;5004356;28;20089;-74
2021/12/17 11:04:18;;;;;;;22.23;9.15;;;5.80;96.30;;;;;;4972551;28;20028;-73
2021/12/17 11:06:45;;;;;;;21.55;9.68;;;5.90;96.00;;;;;;5004610;28;20246;-71
2021/12/17 11:09:11;;;;;;;20.23;8.43;;;5.70;96.40;;;;;;5000258;28;20544;-72
2021/12/17 11:11:42;;;;;;;21.98;9.30;;;5.70;96.50;;;;;;4999751;28;20097;-74
2021/12/17 11:14:08;;;;;;;20.60;7.32;;;5.60;96.20;;;;;;4986349;28;20069;-78
2021/12/17 11:16:36;;;;;;;21.58;8.25;;;5.70;96.50;;;;;;5003972;28;20329;-73
2021/12/17 11:19:02;;;;;;;17.63;7.03;;;5.70;96.10;;;;;;4983370;28;20135;-69
2021/12/17 11:21:28;;;;;;;20.07;7.30;;;5.60;95.70;;;;;;4982641;28;20024;-70
2021/12/17 11:23:54;;;;;;;14.55;7.10;;;5.70;96.00;;;;;;4982924;28;20118;-69
2021/12/17 11:26:20;;;;;;;20.23;7.95;;;5.70;96.00;;;;;;4983230;28;20027;-73
2021/12/17 11:28:46;;;;;;;17.05;7.38;;;5.70;96.30;;;;;;4983780;28;20054;-72
2021/12/17 11:31:12;;;;;;;15.32;6.78;;;5.70;96.10;;;;;;4967450;28;20023;-72
2021/12/17 11:33:38;;;;;;;12.27;5.30;;;5.70;95.40;;;;;;4983290;28;20034;-73
2021/12/17 11:36:04;;;;;;;13.95;5.32;;;5.70;95.20;;;;;;4982707;28;20023;-73
2021/12/17 11:38:57;;;;;;;15.93;6.55;;;5.70;95.10;;;;;;4982952;28;20098;-74
2021/12/17 11:42:04;;;;;;;13.85;5.88;;;5.70;95.10;;;;;;4980504;28;20093;-74
2021/12/17 11:44:41;;;;;;;15.75;5.75;;;5.80;95.10;;;;;;4968097;28;20037;-72
2021/12/17 11:47:11;;;;;;;9.90;4.63;;;5.80;95.00;;;;;;4982884;28;20206;-72
2021/12/17 11:49:39;;;;;;;11.15;5.25;;;5.70;94.20;;;;;;4966575;28;20027;-73
2021/12/17 11:52:05;;;;;;;12.07;5.68;;;5.80;94.20;;;;;;4982037;28;20016;-73
2021/12/17 11:54:33;;;;;;;12.70;5.57;;;5.70;94.20;;;;;;4982473;28;20046;-72
2021/12/17 11:57:12;;;;;;;12.02;5.35;;;5.70;94.40;;;;;;4965871;28;20122;-73
2021/12/17 11:59:44;;;;;;;12.45;5.60;;;5.70;94.30;;;;;;4950616;28;20038;-69
2021/12/17 12:02:23;;;;;;;11.95;5.97;;;5.60;94.90;;;;;;4983009;28;20100;-66
2021/12/17 12:04:59;;;;;;;16.40;6.18;;;5.60;95.20;;;;;;4982003;28;20033;-68
2021/12/17 12:07:25;;;;;;;15.55;6.53;;;5.60;94.90;;;;;;4982770;28;20081;-69
2021/12/17 12:10:05;;;;;;;14.03;6.43;;;5.60;95.00;;;;;;4983001;28;20026;-68
2021/12/17 12:12:34;;;;;;;13.57;6.13;;;5.70;95.20;;;;;;4978197;28;20030;-69
2021/12/17 12:15:27;;;;;;;18.38;8.07;;;5.70;94.90;;;;;;4982420;28;20037;-71
2021/12/17 12:18:03;;;;;;;15.32;7.82;;;5.70;95.00;;;;;;4982859;28;20359;-70
2021/12/17 12:20:47;;;;;;;13.73;6.10;;;5.70;94.70;;;;;;4983276;28;20219;-69
2021/12/17 12:23:37;;;;;;;15.10;7.13;;;5.70;94.40;;;;;;4983364;28;20034;-69
2021/12/17 12:26:03;;;;;;;10.55;5.35;;;5.70;94.40;;;;;;4982843;28;20085;-69
2021/12/17 12:28:47;;;;;;;11.07;5.77;;;5.70;94.20;;;;;;4983064;28;20018;-69
2021/12/17 12:31:19;;;;;;;12.52;6.03;;;5.70;94.60;;;;;;4983092;28;20278;-69
2021/12/17 12:34:13;;;;;;;11.30;5.95;;;5.60;93.40;;;;;;4982182;28;20317;-69
2021/12/17 12:36:55;;;;;;;11.73;4.88;;;5.50;93.60;;;;;;4979421;28;20053;-69
2021/12/17 12:39:31;;;;;;;10.45;5.72;;;5.40;93.70;;;;;;4982394;28;20031;-70
2021/12/17 12:42:28;;;;;;;13.55;6.00;;;5.40;93.80;;;;;;4974184;28;20046;-70
2021/12/17 12:44:57;;;;;;;12.63;6.47;;;5.50;93.70;;;;;;4965051;28;20062;-70
2021/12/17 12:47:26;;;;;;;13.45;7.15;;;5.40;93.70;;;;;;4982334;28;20022;-70
2021/12/17 12:50:06;;;;;;;15.43;7.03;;;5.40;94.00;;;;;;4982435;28;20023;-70
2021/12/17 12:52:51;;;;;;;15.13;7.38;;;5.30;94.40;;;;;;4982185;28;20182;-70
2021/12/17 12:55:22;;;;;;;10.38;6.07;;;5.20;94.20;;;;;;4982007;28;20034;-70
2021/12/17 12:57:58;;;;;;;12.98;6.60;;;5.20;94.10;;;;;;4982949;28;20023;-70
2021/12/17 13:00:31;;;;;;;10.38;6.15;;;5.20;94.10;;;;;;4963247;28;20066;-70
2021/12/17 13:03:04;;;;;;;12.38;5.97;;;5.30;94.40;;;;;;4962741;28;20023;-70
2021/12/17 13:05:31;;;;;;;15.63;6.93;;;5.30;94.40;;;;;;5001127;23;20114;-69
2021/12/17 13:07:59;;;;;;;13.73;6.85;;;5.30;94.10;;;;;;4991882;28;20018;-69
2021/12/17 13:10:28;;;;;;;13.23;7.18;;;5.30;94.00;;;;;;5000598;28;20089;-69
2021/12/17 13:13:03;;;;;;;14.35;6.85;;;5.20;94.30;;;;;;4981844;28;20171;-69
2021/12/17 13:23:51;;;;;;;13.00;7.00;;;5.10;94.10;;;;;;4974750;28;20019;-69
2021/12/17 13:26:19;;;;;;;11.55;6.45;;;5.10;93.80;;;;;;4968009;28;20029;-69
2021/12/17 13:29:12;;;;;;;13.02;6.85;;;5.00;93.90;;;;;;4982169;28;20086;-68
2021/12/17 13:31:47;;;;;;;12.82;5.88;;;5.10;93.80;;;;;;4981989;28;20028;-68
2021/12/17 13:34:18;;;;;;;13.77;6.63;;;5.00;93.90;;;;;;4982701;28;20053;-68
2021/12/17 13:36:55;;;;;;;14.32;7.22;;;5.00;93.90;;;;;;4977800;28;20022;-69
2021/12/17 13:39:23;;;;;;;12.75;6.35;;;4.90;93.80;;;;;;4972402;28;20016;-69
2021/12/17 13:41:49;;;;;;;14.63;7.38;;;4.90;93.80;;;;;;4982270;28;20147;-68
2021/12/17 13:44:45;;;;;;;13.30;7.15;;;4.90;93.90;;;;;;4973869;28;20456;-69
2021/12/17 13:47:21;;;;;;;11.20;5.72;;;4.90;93.60;;;;;;4978350;28;20030;-68
2021/12/17 13:49:52;;;;;;;22.60;10.40;;;5.00;93.60;;;;;;4985465;28;20209;-69
2021/12/17 13:52:21;;;;;;;15.57;8.25;;;5.00;93.70;;;;;;4986451;28;20320;-69
2021/12/17 13:54:48;;;;;;;16.38;7.10;;;5.00;93.70;;;;;;4984983;28;20030;-69
2021/12/17 13:57:18;;;;;;;14.70;7.05;;;5.00;93.70;;;;;;4987547;28;20022;-69
2021/12/17 13:59:48;;;;;;;15.02;7.05;;;5.10;93.80;;;;;;4986996;28;20027;-68
2021/12/17 14:02:20;;;;;;;16.17;7.28;;;5.10;93.80;;;;;;4987257;28;20081;-69
2021/12/17 14:05:24;;;;;;;12.57;6.70;;;5.10;93.70;;;;;;4985869;28;20353;-69
2021/12/17 14:07:52;;;;;;;13.20;7.00;;;5.20;93.40;;;;;;4967063;28;20031;-69
2021/12/17 14:10:24;;;;;;;13.13;6.85;;;5.20;93.50;;;;;;4984908;28;20026;-68
2021/12/17 14:12:50;;;;;;;15.55;7.65;;;5.20;93.20;;;;;;4985601;28;20030;-69
2021/12/17 14:15:22;;;;;;;12.23;6.77;;;5.20;93.10;;;;;;4969915;28;20028;-69
2021/12/17 14:17:53;;;;;;;13.38;7.28;;;5.10;93.30;;;;;;4983020;28;20023;-68
2021/12/17 14:20:22;;;;;;;16.20;8.15;;;5.20;93.30;;;;;;4986598;28;20031;-68
2021/12/17 14:22:55;;;;;;;14.93;7.85;;;5.30;93.10;;;;;;4985191;28;20446;-68
2021/12/17 14:25:39;;;;;;;13.85;7.20;;;5.30;93.10;;;;;;4986388;28;20031;-69
2021/12/17 14:28:21;;;;;;;14.73;8.60;;;5.40;93.20;;;;;;4986915;28;20329;-68
2021/12/17 14:31:12;;;;;;;19.00;9.52;;;5.40;92.90;;;;;;4966738;28;20062;-68
2021/12/17 14:33:48;;;;;;;18.35;9.00;;;5.40;93.10;;;;;;4967431;28;20031;-69
2021/12/17 14:36:15;;;;;;;14.52;7.80;;;5.40;93.10;;;;;;4976690;28;20093;-68
2021/12/17 14:38:43;;;;;;;19.40;8.43;;;5.30;93.10;;;;;;4986430;28;20019;-69
2021/12/17 14:41:29;;;;;;;16.80;7.75;;;5.30;93.30;;;;;;4985850;28;20373;-68
2021/12/17 14:46:24;;;;;;;13.50;7.77;;;5.30;93.10;;;;;;4986339;28;20018;-68
2021/12/17 14:57:14;;;;;;;14.55;7.57;;;5.20;93.60;;;;;;4985658;28;20081;-68
2021/12/17 15:05:50;;;;;;;15.55;7.28;;;5.10;93.30;;;;;;4986934;28;20026;-68
2021/12/17 15:08:17;;;;;;;14.00;8.07;;;5.10;93.20;;;;;;4986857;28;20094;-68
2021/12/17 15:10:43;;;;;;;14.80;7.72;;;5.10;93.20;;;;;;4985829;28;20023;-68
2021/12/17 15:13:08;;;;;;;14.50;7.57;;;5.10;93.40;;;;;;4986337;28;20077;-68
2021/12/17 15:15:37;;;;;;;13.25;7.22;;;5.10;93.60;;;;;;4983984;28;20031;-68
2021/12/17 15:18:13;;;;;;;15.05;7.25;;;5.10;93.60;;;;;;4985040;28;20019;-69
2021/12/17 15:20:40;;;;;;;14.10;7.95;;;5.10;93.40;;;;;;4985695;28;20022;-68
2021/12/17 15:23:06;;;;;;;14.13;7.45;;;5.10;93.30;;;;;;4985162;28;20340;-68
2021/12/17 15:25:32;;;;;;;13.80;7.50;;;5.10;93.50;;;;;;4985538;28;20034;-68
2021/12/17 15:27:58;;;;;;;11.23;6.82;;;5.10;93.50;;;;;;4985846;28;20030;-68
2021/12/17 15:30:41;;;;;;;11.93;6.75;;;5.10;92.80;;;;;;4984602;28;20073;-68
2021/12/17 15:33:07;;;;;;;15.38;7.55;;;5.10;92.80;;;;;;4984756;28;20050;-68
2021/12/17 15:35:33;;;;;;;13.90;7.77;;;5.00;93.10;;;;;;4983290;28;20027;-69
2021/12/17 15:37:59;;;;;;;13.23;6.80;;;5.00;93.30;;;;;;4984622;28;20022;-68
2021/12/17 15:40:25;;;;;;;12.95;7.43;;;5.00;93.30;;;;;;4984801;28;20023;-68
2021/12/17 15:42:52;;;;;;;14.00;7.27;;;5.00;93.30;;;;;;4984520;28;20078;-69
2021/12/17 15:45:18;;;;;;;13.30;7.28;;;5.00;93.30;;;;;;4984335;28;20015;-68
2021/12/17 15:47:44;;;;;;;13.57;7.17;;;5.00;93.40;;;;;;4985521;28;20030;-68
2021/12/17 15:50:11;;;;;;;13.48;6.97;;;5.00;93.50;;;;;;4984184;28;20027;-67
2021/12/17 15:52:45;;;;;;;14.75;7.38;;;5.00;93.70;;;;;;4983618;28;20018;-69
2021/12/17 15:55:15;;;;;;;15.10;7.15;;;5.00;93.50;;;;;;4968692;28;20073;-69
2021/12/17 15:57:41;;;;;;;12.60;7.10;;;4.90;93.70;;;;;;4951951;28;20038;-69
2021/12/17 16:00:08;;;;;;;15.13;7.33;;;4.90;93.60;;;;;;4984422;28;20042;-68
2021/12/17 16:02:35;;;;;;;15.15;7.85;;;5.00;93.50;;;;;;4983239;28;20301;-68
2021/12/17 16:05:02;;;;;;;14.07;7.47;;;4.90;93.30;;;;;;4984719;28;20244;-69
2021/12/17 16:07:28;;;;;;;12.68;7.45;;;5.00;93.00;;;;;;4985028;28;20022;-69
2021/12/17 16:18:16;;;;;;;13.65;6.80;;;4.70;92.90;;;;;;4982871;28;20265;-68
2021/12/17 16:23:45;;;;;;;21.00;7.35;;;4.80;92.80;;;;;;4984738;28;20066;-69
2021/12/17 16:26:12;;;;;;;12.93;7.03;;;4.80;92.90;;;;;;4963645;28;20296;-68
2021/12/17 16:28:39;;;;;;;11.02;6.40;;;4.80;92.80;;;;;;4965338;28;20023;-68